LEPP/PNA METAR and TAF weather

Enter ICAO airport designator
Station Type Date Time Source
LEPP METAR 2024/04/15 08:00 UTC NOAA

LEPP 150800Z 35012KT 9999 OVC018 12/08 Q1024


Station Type Date Time Source
LEPP Decoded METAR 2024/04/15 08:00 UTC NOAA

Pamplona / Noain, Spain (LEPP) 42-46N 001-38W 453M
Apr 15, 2024 - 04:00 AM EDT / 2024.04.15 0800 UTC
Wind: from the N (350 degrees) at 14 MPH (12 KT):0
Visibility: greater than 7 mile(s):0
Sky conditions: overcast
Temperature: 53 F (12 C)
Dew Point: 46 F (8 C)
Relative Humidity: 76%
Pressure (altimeter): 30.24 in. Hg (1024 hPa)
ob: LEPP 150800Z 35012KT 9999 OVC018 12/08 Q1024
cycle: 8

Station Type Date Time Source
LEPP TAF 2024/04/15 03:30 UTC NOAA